sensor_id;sensor_type;location;lat;lon;timestamp;P1;durP1;ratioP1;P2;durP2;ratioP2
51066;SDS011;37112;45.892;-123.962;2022-09-09T00:01:04;40.80;;;7.60;;
51066;SDS011;37112;45.892;-123.962;2022-09-09T00:03:30;50.50;;;9.90;;
51066;SDS011;37112;45.892;-123.962;2022-09-09T00:05:48;59.20;;;10.10;;
51066;SDS011;37112;45.892;-123.962;2022-09-09T00:08:09;43.90;;;8.00;;
51066;SDS011;37112;45.892;-123.962;2022-09-09T00:10:29;46.60;;;9.90;;
51066;SDS011;37112;45.892;-123.962;2022-09-09T00:12:46;63.70;;;11.20;;
51066;SDS011;37112;45.892;-123.962;2022-09-09T00:15:11;58.10;;;11.70;;
51066;SDS011;37112;45.892;-123.962;2022-09-09T00:17:31;51.60;;;9.20;;
51066;SDS011;37112;45.892;-123.962;2022-09-09T00:19:50;31.70;;;7.30;;
51066;SDS011;37112;45.892;-123.962;2022-09-09T00:22:12;49.70;;;11.20;;
51066;SDS011;37112;45.892;-123.962;2022-09-09T00:24:29;59.30;;;10.20;;
51066;SDS011;37112;45.892;-123.962;2022-09-09T00:26:49;36.80;;;7.60;;
51066;SDS011;37112;45.892;-123.962;2022-09-09T00:29:09;71.70;;;13.10;;
51066;SDS011;37112;45.892;-123.962;2022-09-09T00:31:32;44.10;;;8.40;;
51066;SDS011;37112;45.892;-123.962;2022-09-09T00:33:47;46.90;;;7.60;;
51066;SDS011;37112;45.892;-123.962;2022-09-09T00:36:03;33.10;;;6.50;;
51066;SDS011;37112;45.892;-123.962;2022-09-09T00:38:23;32.20;;;5.70;;
51066;SDS011;37112;45.892;-123.962;2022-09-09T00:40:41;28.60;;;4.70;;
51066;SDS011;37112;45.892;-123.962;2022-09-09T00:43:10;11.70;;;2.40;;
51066;SDS011;37112;45.892;-123.962;2022-09-09T00:45:46;7.70;;;2.10;;
51066;SDS011;37112;45.892;-123.962;2022-09-09T00:48:12;8.60;;;1.50;;
51066;SDS011;37112;45.892;-123.962;2022-09-09T00:50:41;12.70;;;1.90;;
51066;SDS011;37112;45.892;-123.962;2022-09-09T00:53:05;7.30;;;1.90;;
51066;SDS011;37112;45.892;-123.962;2022-09-09T00:55:32;7.90;;;2.80;;
51066;SDS011;37112;45.892;-123.962;2022-09-09T00:57:51;8.10;;;1.80;;
51066;SDS011;37112;45.892;-123.962;2022-09-09T01:00:19;8.60;;;1.50;;
51066;SDS011;37112;45.892;-123.962;2022-09-09T01:02:37;10.40;;;1.50;;
51066;SDS011;37112;45.892;-123.962;2022-09-09T01:04:55;10.60;;;1.70;;
51066;SDS011;37112;45.892;-123.962;2022-09-09T01:07:16;12.10;;;2.10;;
51066;SDS011;37112;45.892;-123.962;2022-09-09T01:09:29;6.80;;;1.90;;
51066;SDS011;37112;45.892;-123.962;2022-09-09T01:11:51;6.80;;;1.70;;
51066;SDS011;37112;45.892;-123.962;2022-09-09T01:14:13;7.40;;;1.80;;
51066;SDS011;37112;45.892;-123.962;2022-09-09T01:16:34;8.50;;;1.80;;
51066;SDS011;37112;45.892;-123.962;2022-09-09T01:18:49;9.10;;;1.70;;
51066;SDS011;37112;45.892;-123.962;2022-09-09T01:21:08;10.00;;;1.50;;
51066;SDS011;37112;45.892;-123.962;2022-09-09T01:23:36;8.50;;;1.50;;
51066;SDS011;37112;45.892;-123.962;2022-09-09T01:26:26;7.50;;;1.90;;
51066;SDS011;37112;45.892;-123.962;2022-09-09T01:28:48;11.50;;;1.90;;
51066;SDS011;37112;45.892;-123.962;2022-09-09T01:31:11;12.10;;;1.90;;
51066;SDS011;37112;45.892;-123.962;2022-09-09T01:33:28;11.30;;;2.50;;
51066;SDS011;37112;45.892;-123.962;2022-09-09T01:35:43;11.70;;;2.40;;
51066;SDS011;37112;45.892;-123.962;2022-09-09T01:38:06;10.70;;;2.00;;
51066;SDS011;37112;45.892;-123.962;2022-09-09T01:40:20;13.60;;;2.00;;
51066;SDS011;37112;45.892;-123.962;2022-09-09T01:42:35;10.30;;;2.00;;
51066;SDS011;37112;45.892;-123.962;2022-09-09T01:44:48;14.60;;;2.50;;
51066;SDS011;37112;45.892;-123.962;2022-09-09T01:47:03;9.60;;;2.40;;
51066;SDS011;37112;45.892;-123.962;2022-09-09T01:49:36;12.50;;;2.60;;
51066;SDS011;37112;45.892;-123.962;2022-09-09T01:51:58;7.90;;;1.90;;
51066;SDS011;37112;45.892;-123.962;2022-09-09T01:54:16;9.90;;;1.90;;
51066;SDS011;37112;45.892;-123.962;2022-09-09T01:56:34;18.60;;;2.50;;
51066;SDS011;37112;45.892;-123.962;2022-09-09T02:01:15;9.20;;;2.80;;
51066;SDS011;37112;45.892;-123.962;2022-09-09T02:03:36;8.70;;;2.50;;
51066;SDS011;37112;45.892;-123.962;2022-09-09T02:06:00;11.60;;;2.10;;
51066;SDS011;37112;45.892;-123.962;2022-09-09T02:08:26;14.80;;;2.50;;
51066;SDS011;37112;45.892;-123.962;2022-09-09T02:11:05;7.90;;;1.80;;
51066;SDS011;37112;45.892;-123.962;2022-09-09T02:13:47;13.70;;;2.70;;
51066;SDS011;37112;45.892;-123.962;2022-09-09T02:16:05;11.70;;;2.60;;
51066;SDS011;37112;45.892;-123.962;2022-09-09T02:18:39;13.00;;;2.40;;
51066;SDS011;37112;45.892;-123.962;2022-09-09T02:21:22;15.90;;;2.90;;
51066;SDS011;37112;45.892;-123.962;2022-09-09T02:23:38;13.00;;;2.50;;
51066;SDS011;37112;45.892;-123.962;2022-09-09T02:25:54;10.10;;;2.70;;
51066;SDS011;37112;45.892;-123.962;2022-09-09T02:28:10;14.80;;;2.90;;
51066;SDS011;37112;45.892;-123.962;2022-09-09T02:30:27;10.60;;;1.90;;
51066;SDS011;37112;45.892;-123.962;2022-09-09T02:32:43;15.90;;;3.50;;
51066;SDS011;37112;45.892;-123.962;2022-09-09T02:35:00;15.50;;;3.40;;
51066;SDS011;37112;45.892;-123.962;2022-09-09T02:37:18;11.70;;;2.60;;
51066;SDS011;37112;45.892;-123.962;2022-09-09T02:39:36;18.80;;;3.10;;
51066;SDS011;37112;45.892;-123.962;2022-09-09T02:41:51;15.10;;;2.60;;
51066;SDS011;37112;45.892;-123.962;2022-09-09T02:44:11;15.90;;;3.50;;
51066;SDS011;37112;45.892;-123.962;2022-09-09T02:46:32;17.20;;;3.80;;
51066;SDS011;37112;45.892;-123.962;2022-09-09T02:48:58;19.30;;;3.40;;
51066;SDS011;37112;45.892;-123.962;2022-09-09T02:51:18;20.60;;;3.40;;
51066;SDS011;37112;45.892;-123.962;2022-09-09T02:53:42;13.60;;;2.60;;
51066;SDS011;37112;45.892;-123.962;2022-09-09T02:56:02;11.50;;;2.90;;
51066;SDS011;37112;45.892;-123.962;2022-09-09T02:58:20;14.30;;;3.50;;
51066;SDS011;37112;45.892;-123.962;2022-09-09T03:00:38;14.70;;;3.40;;
51066;SDS011;37112;45.892;-123.962;2022-09-09T03:02:52;17.70;;;3.50;;
51066;SDS011;37112;45.892;-123.962;2022-09-09T03:05:07;19.50;;;3.50;;
51066;SDS011;37112;45.892;-123.962;2022-09-09T03:07:21;16.50;;;3.10;;
51066;SDS011;37112;45.892;-123.962;2022-09-09T03:09:35;17.60;;;2.80;;
51066;SDS011;37112;45.892;-123.962;2022-09-09T03:11:49;19.50;;;4.70;;
51066;SDS011;37112;45.892;-123.962;2022-09-09T03:14:03;20.30;;;5.40;;
51066;SDS011;37112;45.892;-123.962;2022-09-09T03:16:19;21.30;;;5.30;;
51066;SDS011;37112;45.892;-123.962;2022-09-09T03:18:32;21.40;;;4.20;;
51066;SDS011;37112;45.892;-123.962;2022-09-09T03:20:45;21.40;;;4.00;;
51066;SDS011;37112;45.892;-123.962;2022-09-09T03:22:59;18.50;;;4.30;;
51066;SDS011;37112;45.892;-123.962;2022-09-09T03:25:12;20.00;;;4.10;;
51066;SDS011;37112;45.892;-123.962;2022-09-09T03:27:26;15.10;;;3.80;;
51066;SDS011;37112;45.892;-123.962;2022-09-09T03:29:40;17.20;;;4.20;;
51066;SDS011;37112;45.892;-123.962;2022-09-09T03:31:57;23.40;;;4.20;;
51066;SDS011;37112;45.892;-123.962;2022-09-09T03:34:11;18.00;;;3.70;;
51066;SDS011;37112;45.892;-123.962;2022-09-09T03:36:24;14.60;;;4.10;;
51066;SDS011;37112;45.892;-123.962;2022-09-09T03:38:38;15.30;;;3.30;;
51066;SDS011;37112;45.892;-123.962;2022-09-09T03:40:52;14.10;;;3.30;;
51066;SDS011;37112;45.892;-123.962;2022-09-09T03:43:07;44.10;;;8.00;;
51066;SDS011;37112;45.892;-123.962;2022-09-09T03:45:20;57.60;;;11.30;;
51066;SDS011;37112;45.892;-123.962;2022-09-09T03:47:34;42.40;;;8.30;;
51066;SDS011;37112;45.892;-123.962;2022-09-09T03:49:47;24.20;;;5.80;;
51066;SDS011;37112;45.892;-123.962;2022-09-09T03:52:01;19.20;;;3.70;;
51066;SDS011;37112;45.892;-123.962;2022-09-09T03:54:14;22.30;;;4.20;;
51066;SDS011;37112;45.892;-123.962;2022-09-09T03:56:28;18.20;;;3.70;;
51066;SDS011;37112;45.892;-123.962;2022-09-09T03:58:41;17.70;;;3.60;;
51066;SDS011;37112;45.892;-123.962;2022-09-09T04:00:55;13.40;;;3.00;;
51066;SDS011;37112;45.892;-123.962;2022-09-09T04:03:09;20.70;;;3.80;;
51066;SDS011;37112;45.892;-123.962;2022-09-09T04:05:23;16.20;;;3.20;;
51066;SDS011;37112;45.892;-123.962;2022-09-09T04:07:37;18.00;;;2.70;;
51066;SDS011;37112;45.892;-123.962;2022-09-09T04:09:50;14.50;;;2.80;;
51066;SDS011;37112;45.892;-123.962;2022-09-09T04:12:05;13.80;;;2.70;;
51066;SDS011;37112;45.892;-123.962;2022-09-09T04:14:21;16.20;;;3.60;;
51066;SDS011;37112;45.892;-123.962;2022-09-09T04:16:37;12.30;;;3.20;;
51066;SDS011;37112;45.892;-123.962;2022-09-09T04:18:52;8.60;;;2.80;;
51066;SDS011;37112;45.892;-123.962;2022-09-09T04:21:06;49.40;;;9.50;;
51066;SDS011;37112;45.892;-123.962;2022-09-09T04:23:20;45.50;;;8.40;;
51066;SDS011;37112;45.892;-123.962;2022-09-09T04:25:35;129.50;;;22.30;;
51066;SDS011;37112;45.892;-123.962;2022-09-09T04:27:55;202.90;;;35.00;;
51066;SDS011;37112;45.892;-123.962;2022-09-09T04:30:09;193.50;;;30.50;;
51066;SDS011;37112;45.892;-123.962;2022-09-09T04:32:24;153.10;;;29.20;;
51066;SDS011;37112;45.892;-123.962;2022-09-09T04:34:38;180.20;;;26.50;;
51066;SDS011;37112;45.892;-123.962;2022-09-09T04:36:53;145.50;;;25.30;;
51066;SDS011;37112;45.892;-123.962;2022-09-09T04:39:06;138.40;;;25.60;;
51066;SDS011;37112;45.892;-123.962;2022-09-09T04:41:20;123.50;;;22.00;;
51066;SDS011;37112;45.892;-123.962;2022-09-09T04:43:34;126.00;;;22.00;;
51066;SDS011;37112;45.892;-123.962;2022-09-09T04:45:48;106.70;;;20.80;;
51066;SDS011;37112;45.892;-123.962;2022-09-09T04:48:03;104.00;;;21.40;;
51066;SDS011;37112;45.892;-123.962;2022-09-09T04:50:18;92.20;;;18.30;;
51066;SDS011;37112;45.892;-123.962;2022-09-09T04:52:37;76.90;;;14.30;;
51066;SDS011;37112;45.892;-123.962;2022-09-09T04:54:50;68.30;;;12.20;;
51066;SDS011;37112;45.892;-123.962;2022-09-09T04:57:04;56.10;;;9.60;;
51066;SDS011;37112;45.892;-123.962;2022-09-09T04:59:24;37.00;;;9.10;;
51066;SDS011;37112;45.892;-123.962;2022-09-09T05:01:39;32.50;;;7.60;;
51066;SDS011;37112;45.892;-123.962;2022-09-09T05:03:52;27.80;;;5.70;;
51066;SDS011;37112;45.892;-123.962;2022-09-09T05:06:07;25.90;;;5.10;;
51066;SDS011;37112;45.892;-123.962;2022-09-09T05:08:22;23.40;;;4.80;;
51066;SDS011;37112;45.892;-123.962;2022-09-09T05:10:36;17.60;;;4.30;;
51066;SDS011;37112;45.892;-123.962;2022-09-09T05:12:54;18.40;;;4.90;;
51066;SDS011;37112;45.892;-123.962;2022-09-09T05:15:09;14.90;;;3.70;;
51066;SDS011;37112;45.892;-123.962;2022-09-09T05:17:22;15.60;;;3.70;;
51066;SDS011;37112;45.892;-123.962;2022-09-09T05:19:36;13.50;;;4.20;;
51066;SDS011;37112;45.892;-123.962;2022-09-09T05:21:51;12.40;;;4.10;;
51066;SDS011;37112;45.892;-123.962;2022-09-09T05:24:10;11.80;;;4.00;;
51066;SDS011;37112;45.892;-123.962;2022-09-09T05:26:23;14.20;;;4.60;;
51066;SDS011;37112;45.892;-123.962;2022-09-09T05:28:37;21.80;;;5.60;;
51066;SDS011;37112;45.892;-123.962;2022-09-09T05:30:56;108.00;;;23.30;;
51066;SDS011;37112;45.892;-123.962;2022-09-09T05:33:12;193.50;;;36.80;;
51066;SDS011;37112;45.892;-123.962;2022-09-09T05:35:25;179.00;;;32.60;;
51066;SDS011;37112;45.892;-123.962;2022-09-09T05:37:39;224.20;;;38.50;;
51066;SDS011;37112;45.892;-123.962;2022-09-09T05:39:54;196.80;;;36.40;;
51066;SDS011;37112;45.892;-123.962;2022-09-09T05:42:09;180.20;;;35.50;;
51066;SDS011;37112;45.892;-123.962;2022-09-09T05:44:23;155.00;;;32.00;;
51066;SDS011;37112;45.892;-123.962;2022-09-09T05:46:37;150.20;;;30.40;;
51066;SDS011;37112;45.892;-123.962;2022-09-09T05:48:51;180.40;;;33.50;;
51066;SDS011;37112;45.892;-123.962;2022-09-09T05:51:09;198.20;;;37.00;;
51066;SDS011;37112;45.892;-123.962;2022-09-09T05:53:24;159.00;;;35.10;;
51066;SDS011;37112;45.892;-123.962;2022-09-09T05:55:40;162.30;;;31.70;;
51066;SDS011;37112;45.892;-123.962;2022-09-09T05:57:53;129.10;;;25.30;;
51066;SDS011;37112;45.892;-123.962;2022-09-09T06:00:08;110.60;;;19.90;;
51066;SDS011;37112;45.892;-123.962;2022-09-09T06:02:24;79.30;;;15.50;;
51066;SDS011;37112;45.892;-123.962;2022-09-09T06:04:37;66.40;;;12.50;;
51066;SDS011;37112;45.892;-123.962;2022-09-09T06:06:50;51.10;;;10.70;;
51066;SDS011;37112;45.892;-123.962;2022-09-09T06:09:04;48.10;;;10.30;;
51066;SDS011;37112;45.892;-123.962;2022-09-09T06:11:21;38.80;;;11.00;;
51066;SDS011;37112;45.892;-123.962;2022-09-09T06:13:38;39.70;;;8.40;;
51066;SDS011;37112;45.892;-123.962;2022-09-09T06:15:52;37.00;;;8.80;;
51066;SDS011;37112;45.892;-123.962;2022-09-09T06:18:06;45.10;;;10.80;;
51066;SDS011;37112;45.892;-123.962;2022-09-09T06:20:19;58.50;;;11.50;;
51066;SDS011;37112;45.892;-123.962;2022-09-09T06:22:33;56.40;;;11.70;;
51066;SDS011;37112;45.892;-123.962;2022-09-09T06:24:46;57.20;;;12.10;;
51066;SDS011;37112;45.892;-123.962;2022-09-09T06:26:59;55.10;;;10.60;;
51066;SDS011;37112;45.892;-123.962;2022-09-09T06:29:13;58.40;;;10.70;;
51066;SDS011;37112;45.892;-123.962;2022-09-09T06:31:27;48.90;;;11.30;;
51066;SDS011;37112;45.892;-123.962;2022-09-09T06:34:01;94.30;;;17.00;;
51066;SDS011;37112;45.892;-123.962;2022-09-09T06:36:18;87.80;;;18.00;;
51066;SDS011;37112;45.892;-123.962;2022-09-09T06:38:33;97.40;;;17.60;;
51066;SDS011;37112;45.892;-123.962;2022-09-09T06:40:52;115.30;;;19.70;;
51066;SDS011;37112;45.892;-123.962;2022-09-09T06:43:06;70.20;;;14.80;;
51066;SDS011;37112;45.892;-123.962;2022-09-09T06:45:25;64.30;;;12.30;;
51066;SDS011;37112;45.892;-123.962;2022-09-09T06:47:38;94.60;;;16.70;;
51066;SDS011;37112;45.892;-123.962;2022-09-09T06:49:53;108.40;;;17.40;;
51066;SDS011;37112;45.892;-123.962;2022-09-09T06:52:07;66.80;;;13.70;;
51066;SDS011;37112;45.892;-123.962;2022-09-09T06:54:21;89.20;;;16.80;;
51066;SDS011;37112;45.892;-123.962;2022-09-09T06:56:34;65.30;;;12.90;;
51066;SDS011;37112;45.892;-123.962;2022-09-09T06:59:00;63.70;;;14.50;;
51066;SDS011;37112;45.892;-123.962;2022-09-09T07:01:17;72.90;;;14.60;;
51066;SDS011;37112;45.892;-123.962;2022-09-09T07:03:33;59.70;;;12.20;;
51066;SDS011;37112;45.892;-123.962;2022-09-09T07:05:55;59.20;;;13.30;;
51066;SDS011;37112;45.892;-123.962;2022-09-09T07:08:09;79.70;;;15.00;;
51066;SDS011;37112;45.892;-123.962;2022-09-09T07:10:25;59.70;;;13.00;;
51066;SDS011;37112;45.892;-123.962;2022-09-09T07:12:40;98.00;;;17.50;;
51066;SDS011;37112;45.892;-123.962;2022-09-09T07:14:53;88.70;;;15.70;;
51066;SDS011;37112;45.892;-123.962;2022-09-09T07:17:06;83.40;;;16.40;;
51066;SDS011;37112;45.892;-123.962;2022-09-09T07:19:20;82.30;;;14.10;;
51066;SDS011;37112;45.892;-123.962;2022-09-09T07:21:33;84.70;;;16.90;;
51066;SDS011;37112;45.892;-123.962;2022-09-09T07:23:48;87.10;;;16.00;;
51066;SDS011;37112;45.892;-123.962;2022-09-09T07:26:01;83.90;;;18.60;;
51066;SDS011;37112;45.892;-123.962;2022-09-09T07:28:17;95.20;;;18.90;;
51066;SDS011;37112;45.892;-123.962;2022-09-09T07:30:31;90.60;;;14.10;;
51066;SDS011;37112;45.892;-123.962;2022-09-09T07:32:45;81.50;;;14.00;;
51066;SDS011;37112;45.892;-123.962;2022-09-09T07:35:00;70.20;;;15.50;;
51066;SDS011;37112;45.892;-123.962;2022-09-09T07:37:14;79.30;;;15.10;;
51066;SDS011;37112;45.892;-123.962;2022-09-09T07:39:27;89.20;;;15.40;;
51066;SDS011;37112;45.892;-123.962;2022-09-09T07:41:42;73.00;;;15.00;;
51066;SDS011;37112;45.892;-123.962;2022-09-09T07:43:58;67.70;;;13.70;;
51066;SDS011;37112;45.892;-123.962;2022-09-09T07:46:15;65.70;;;12.80;;
51066;SDS011;37112;45.892;-123.962;2022-09-09T07:48:29;61.50;;;13.90;;
51066;SDS011;37112;45.892;-123.962;2022-09-09T07:50:43;59.80;;;14.50;;
51066;SDS011;37112;45.892;-123.962;2022-09-09T07:52:57;55.10;;;11.00;;
51066;SDS011;37112;45.892;-123.962;2022-09-09T07:55:13;74.90;;;13.70;;
51066;SDS011;37112;45.892;-123.962;2022-09-09T07:57:27;64.80;;;11.80;;
51066;SDS011;37112;45.892;-123.962;2022-09-09T07:59:40;56.20;;;13.10;;
51066;SDS011;37112;45.892;-123.962;2022-09-09T08:01:54;60.60;;;11.60;;
51066;SDS011;37112;45.892;-123.962;2022-09-09T08:04:08;71.10;;;12.00;;
51066;SDS011;37112;45.892;-123.962;2022-09-09T08:06:23;60.60;;;13.80;;
51066;SDS011;37112;45.892;-123.962;2022-09-09T08:08:38;45.70;;;10.80;;
51066;SDS011;37112;45.892;-123.962;2022-09-09T08:10:52;60.40;;;11.00;;
51066;SDS011;37112;45.892;-123.962;2022-09-09T08:13:11;62.00;;;11.60;;
51066;SDS011;37112;45.892;-123.962;2022-09-09T08:15:26;50.80;;;10.60;;
51066;SDS011;37112;45.892;-123.962;2022-09-09T08:17:40;54.70;;;9.50;;
51066;SDS011;37112;45.892;-123.962;2022-09-09T08:19:54;58.00;;;11.40;;
51066;SDS011;37112;45.892;-123.962;2022-09-09T08:22:13;56.10;;;12.00;;
51066;SDS011;37112;45.892;-123.962;2022-09-09T08:24:28;59.70;;;10.80;;
51066;SDS011;37112;45.892;-123.962;2022-09-09T08:26:42;68.20;;;12.20;;
51066;SDS011;37112;45.892;-123.962;2022-09-09T08:28:59;59.20;;;12.00;;
51066;SDS011;37112;45.892;-123.962;2022-09-09T08:31:13;69.00;;;12.40;;
51066;SDS011;37112;45.892;-123.962;2022-09-09T08:33:27;62.30;;;10.10;;
51066;SDS011;37112;45.892;-123.962;2022-09-09T08:35:41;59.30;;;11.00;;
51066;SDS011;37112;45.892;-123.962;2022-09-09T08:38:03;71.00;;;12.70;;
51066;SDS011;37112;45.892;-123.962;2022-09-09T08:40:20;65.20;;;11.30;;
51066;SDS011;37112;45.892;-123.962;2022-09-09T08:42:40;68.30;;;11.50;;
51066;SDS011;37112;45.892;-123.962;2022-09-09T08:44:59;57.60;;;12.70;;
51066;SDS011;37112;45.892;-123.962;2022-09-09T08:47:29;46.00;;;11.10;;
51066;SDS011;37112;45.892;-123.962;2022-09-09T08:49:54;49.40;;;9.40;;
51066;SDS011;37112;45.892;-123.962;2022-09-09T08:52:25;40.70;;;9.40;;
51066;SDS011;37112;45.892;-123.962;2022-09-09T08:54:48;31.80;;;8.40;;
51066;SDS011;37112;45.892;-123.962;2022-09-09T08:57:03;37.10;;;10.00;;
51066;SDS011;37112;45.892;-123.962;2022-09-09T08:59:19;39.20;;;7.60;;
51066;SDS011;37112;45.892;-123.962;2022-09-09T09:01:38;37.40;;;7.10;;
51066;SDS011;37112;45.892;-123.962;2022-09-09T09:04:06;17.70;;;5.40;;
51066;SDS011;37112;45.892;-123.962;2022-09-09T09:06:35;9.30;;;4.80;;
51066;SDS011;37112;45.892;-123.962;2022-09-09T09:09:02;14.50;;;5.80;;
51066;SDS011;37112;45.892;-123.962;2022-09-09T09:11:21;13.00;;;5.80;;
51066;SDS011;37112;45.892;-123.962;2022-09-09T09:13:38;11.80;;;5.00;;
51066;SDS011;37112;45.892;-123.962;2022-09-09T09:15:56;15.10;;;5.80;;
51066;SDS011;37112;45.892;-123.962;2022-09-09T09:18:16;13.90;;;4.90;;
51066;SDS011;37112;45.892;-123.962;2022-09-09T09:20:35;10.00;;;5.90;;
51066;SDS011;37112;45.892;-123.962;2022-09-09T09:22:57;12.20;;;5.70;;
51066;SDS011;37112;45.892;-123.962;2022-09-09T09:25:15;12.60;;;6.40;;
51066;SDS011;37112;45.892;-123.962;2022-09-09T09:27:33;10.30;;;5.70;;
51066;SDS011;37112;45.892;-123.962;2022-09-09T09:29:51;8.20;;;6.30;;
51066;SDS011;37112;45.892;-123.962;2022-09-09T09:32:26;12.10;;;6.50;;
51066;SDS011;37112;45.892;-123.962;2022-09-09T09:34:50;11.60;;;6.30;;
51066;SDS011;37112;45.892;-123.962;2022-09-09T09:37:11;12.50;;;7.10;;
51066;SDS011;37112;45.892;-123.962;2022-09-09T09:39:28;9.10;;;6.00;;
51066;SDS011;37112;45.892;-123.962;2022-09-09T09:42:09;11.70;;;5.70;;
51066;SDS011;37112;45.892;-123.962;2022-09-09T09:44:29;13.50;;;7.90;;
51066;SDS011;37112;45.892;-123.962;2022-09-09T09:46:50;12.70;;;7.60;;
51066;SDS011;37112;45.892;-123.962;2022-09-09T09:49:04;13.30;;;7.90;;
51066;SDS011;37112;45.892;-123.962;2022-09-09T09:51:22;15.60;;;7.20;;
51066;SDS011;37112;45.892;-123.962;2022-09-09T09:53:36;12.10;;;7.00;;
51066;SDS011;37112;45.892;-123.962;2022-09-09T09:55:52;12.90;;;7.80;;
51066;SDS011;37112;45.892;-123.962;2022-09-09T09:58:13;14.50;;;8.00;;
51066;SDS011;37112;45.892;-123.962;2022-09-09T10:00:28;12.70;;;7.50;;
51066;SDS011;37112;45.892;-123.962;2022-09-09T10:02:45;13.80;;;7.40;;
51066;SDS011;37112;45.892;-123.962;2022-09-09T10:05:03;9.40;;;6.80;;
51066;SDS011;37112;45.892;-123.962;2022-09-09T10:07:25;13.30;;;7.20;;
51066;SDS011;37112;45.892;-123.962;2022-09-09T10:09:38;11.40;;;7.70;;
51066;SDS011;37112;45.892;-123.962;2022-09-09T10:11:54;12.40;;;7.40;;
51066;SDS011;37112;45.892;-123.962;2022-09-09T10:14:17;12.90;;;7.40;;
51066;SDS011;37112;45.892;-123.962;2022-09-09T10:16:40;13.10;;;6.70;;
51066;SDS011;37112;45.892;-123.962;2022-09-09T10:19:04;11.30;;;7.60;;
51066;SDS011;37112;45.892;-123.962;2022-09-09T10:21:24;68.50;;;17.60;;
51066;SDS011;37112;45.892;-123.962;2022-09-09T10:23:58;52.70;;;16.20;;
51066;SDS011;37112;45.892;-123.962;2022-09-09T10:26:26;74.90;;;16.70;;
51066;SDS011;37112;45.892;-123.962;2022-09-09T10:28:54;51.90;;;12.50;;
51066;SDS011;37112;45.892;-123.962;2022-09-09T10:31:19;35.40;;;9.10;;
51066;SDS011;37112;45.892;-123.962;2022-09-09T10:33:44;25.70;;;9.10;;
51066;SDS011;37112;45.892;-123.962;2022-09-09T10:36:09;20.10;;;8.00;;
51066;SDS011;37112;45.892;-123.962;2022-09-09T10:38:28;18.80;;;7.80;;
51066;SDS011;37112;45.892;-123.962;2022-09-09T10:41:04;17.80;;;7.30;;
51066;SDS011;37112;45.892;-123.962;2022-09-09T10:43:28;13.10;;;7.50;;
51066;SDS011;37112;45.892;-123.962;2022-09-09T10:45:55;14.90;;;7.90;;
51066;SDS011;37112;45.892;-123.962;2022-09-09T10:48:23;12.40;;;8.10;;
51066;SDS011;37112;45.892;-123.962;2022-09-09T10:50:55;14.70;;;7.20;;
51066;SDS011;37112;45.892;-123.962;2022-09-09T10:53:21;12.00;;;7.00;;
51066;SDS011;37112;45.892;-123.962;2022-09-09T10:55:48;14.00;;;7.50;;
51066;SDS011;37112;45.892;-123.962;2022-09-09T10:58:09;11.70;;;7.60;;
51066;SDS011;37112;45.892;-123.962;2022-09-09T11:00:25;17.20;;;7.80;;
51066;SDS011;37112;45.892;-123.962;2022-09-09T11:02:48;12.00;;;7.60;;
51066;SDS011;37112;45.892;-123.962;2022-09-09T11:05:08;11.20;;;6.80;;
51066;SDS011;37112;45.892;-123.962;2022-09-09T11:07:29;13.10;;;8.10;;
51066;SDS011;37112;45.892;-123.962;2022-09-09T11:09:52;14.70;;;7.40;;
51066;SDS011;37112;45.892;-123.962;2022-09-09T11:12:10;13.00;;;6.60;;
51066;SDS011;37112;45.892;-123.962;2022-09-09T11:14:29;11.50;;;6.80;;
51066;SDS011;37112;45.892;-123.962;2022-09-09T11:16:47;12.70;;;6.70;;
51066;SDS011;37112;45.892;-123.962;2022-09-09T11:19:10;10.40;;;6.70;;
51066;SDS011;37112;45.892;-123.962;2022-09-09T11:21:27;13.00;;;6.00;;
51066;SDS011;37112;45.892;-123.962;2022-09-09T11:23:45;9.60;;;5.90;;
51066;SDS011;37112;45.892;-123.962;2022-09-09T11:26:03;13.10;;;6.40;;
51066;SDS011;37112;45.892;-123.962;2022-09-09T11:28:22;9.80;;;6.50;;
51066;SDS011;37112;45.892;-123.962;2022-09-09T11:30:48;8.60;;;6.10;;
51066;SDS011;37112;45.892;-123.962;2022-09-09T11:33:23;9.90;;;5.90;;
51066;SDS011;37112;45.892;-123.962;2022-09-09T11:36:03;7.10;;;5.40;;
51066;SDS011;37112;45.892;-123.962;2022-09-09T11:38:34;8.90;;;5.10;;
51066;SDS011;37112;45.892;-123.962;2022-09-09T11:41:01;11.40;;;6.00;;
51066;SDS011;37112;45.892;-123.962;2022-09-09T11:43:17;10.50;;;6.20;;
51066;SDS011;37112;45.892;-123.962;2022-09-09T11:45:37;13.20;;;6.10;;
51066;SDS011;37112;45.892;-123.962;2022-09-09T11:47:55;12.20;;;6.00;;
51066;SDS011;37112;45.892;-123.962;2022-09-09T11:50:10;11.90;;;5.60;;
51066;SDS011;37112;45.892;-123.962;2022-09-09T11:52:38;10.50;;;5.80;;
51066;SDS011;37112;45.892;-123.962;2022-09-09T11:54:54;8.60;;;5.10;;
51066;SDS011;37112;45.892;-123.962;2022-09-09T11:57:22;11.90;;;6.10;;
51066;SDS011;37112;45.892;-123.962;2022-09-09T11:59:49;11.70;;;5.60;;
51066;SDS011;37112;45.892;-123.962;2022-09-09T12:02:10;7.50;;;4.90;;
51066;SDS011;37112;45.892;-123.962;2022-09-09T12:04:31;7.90;;;5.00;;
51066;SDS011;37112;45.892;-123.962;2022-09-09T12:06:48;10.40;;;5.30;;
51066;SDS011;37112;45.892;-123.962;2022-09-09T12:09:08;10.50;;;5.30;;
51066;SDS011;37112;45.892;-123.962;2022-09-09T12:11:28;10.20;;;4.50;;
51066;SDS011;37112;45.892;-123.962;2022-09-09T12:13:51;9.90;;;4.90;;
51066;SDS011;37112;45.892;-123.962;2022-09-09T12:16:06;10.50;;;4.90;;
51066;SDS011;37112;45.892;-123.962;2022-09-09T12:18:46;8.20;;;5.10;;
51066;SDS011;37112;45.892;-123.962;2022-09-09T12:21:02;7.90;;;4.60;;
51066;SDS011;37112;45.892;-123.962;2022-09-09T12:23:30;11.70;;;4.70;;
51066;SDS011;37112;45.892;-123.962;2022-09-09T12:28:40;11.90;;;4.50;;
51066;SDS011;37112;45.892;-123.962;2022-09-09T12:31:01;17.60;;;6.20;;
51066;SDS011;37112;45.892;-123.962;2022-09-09T12:33:32;25.00;;;7.70;;
51066;SDS011;37112;45.892;-123.962;2022-09-09T12:35:49;16.10;;;5.50;;
51066;SDS011;37112;45.892;-123.962;2022-09-09T12:38:06;10.40;;;4.80;;
51066;SDS011;37112;45.892;-123.962;2022-09-09T12:40:27;7.40;;;3.70;;
51066;SDS011;37112;45.892;-123.962;2022-09-09T12:42:43;18.70;;;6.20;;
51066;SDS011;37112;45.892;-123.962;2022-09-09T12:44:57;8.50;;;4.70;;
51066;SDS011;37112;45.892;-123.962;2022-09-09T12:47:11;11.00;;;4.40;;
51066;SDS011;37112;45.892;-123.962;2022-09-09T12:49:28;5.50;;;3.90;;
51066;SDS011;37112;45.892;-123.962;2022-09-09T12:51:44;7.50;;;4.00;;
51066;SDS011;37112;45.892;-123.962;2022-09-09T12:53:59;7.60;;;4.30;;
51066;SDS011;37112;45.892;-123.962;2022-09-09T12:56:17;7.20;;;4.10;;
51066;SDS011;37112;45.892;-123.962;2022-09-09T12:58:35;8.50;;;4.40;;
51066;SDS011;37112;45.892;-123.962;2022-09-09T13:00:53;11.90;;;4.20;;
51066;SDS011;37112;45.892;-123.962;2022-09-09T13:03:16;6.50;;;3.80;;
51066;SDS011;37112;45.892;-123.962;2022-09-09T13:05:34;6.40;;;4.30;;
51066;SDS011;37112;45.892;-123.962;2022-09-09T13:07:48;6.20;;;3.70;;
51066;SDS011;37112;45.892;-123.962;2022-09-09T13:10:02;6.70;;;3.60;;